MSC Suez — HPMS — position and weather

sailwx.info

Track history (hours):
 
Tides and Currents Weather Stations Pressure Air Temp Water Temp Dewpoint Dewpoint Depression Visibility Wind Speed Wind Dir Waves Ship Positions

MSC Suez

Last reported at 2014-Dec-21 20:33 UTC. Time now 2014-Dec-21 22:14 UTC.
Position N 49°36' W 000°13'.

Length 237 m; draft 11.3 m.

Type: Cargo ship. MMSI: 355289000.

Date/timePositionNaut miles runAvg speedWind from/ knotsBaromVisibWave heightAir tempDewpointWater temp
2014-Dec-21 20:33N 49°36' W 000°13'1010.2
2014-Dec-21 19:31N 49°47' W 000°13'4313.8
2014-Dec-21 16:22N 50°29' E 000°04'1315.5
2014-Dec-21 15:33N 50°34' E 000°22'1515.2
2014-Dec-21 14:33N 50°42' E 000°43'1514.6
2014-Dec-21 13:33N 50°50' E 001°01'1413.5
2014-Dec-21 12:34N 50°59' E 001°18'1212.0
2014-Dec-21 11:33N 51°07' E 001°32'1212.1
2014-Dec-21 10:33N 51°18' E 001°41'1514.8
2014-Dec-21 09:34N 51°32' E 001°45'1716.6
2014-Dec-21 08:33N 51°49' E 001°44'1111.4
2014-Dec-21 07:33N 51°56' E 001°30'7 6.7
2014-Dec-21 06:34N 51°57' E 001°19'0 0.0
2014-Dec-21 05:31N 51°57' E 001°19'0 0.0
2014-Dec-21 04:31N 51°57' E 001°19'0 0.0
2014-Dec-21 03:31N 51°57' E 001°19'0 0.0
2014-Dec-21 02:31N 51°57' E 001°19'0 0.0
2014-Dec-21 01:32N 51°57' E 001°19'0 0.0
2014-Dec-21 00:32N 51°57' E 001°19'0 0.0
2014-Dec-20 23:32N 51°57' E 001°19'0 0.0
2014-Dec-20 22:32N 51°57' E 001°19'0 0.0
2014-Dec-20 21:32N 51°57' E 001°19'0 0.0
2014-Dec-20 20:32N 51°57' E 001°19'0 0.0
2014-Dec-20 19:32N 51°57' E 001°19'0 0.0
2014-Dec-20 18:32N 51°57' E 001°19'0 0.0
2014-Dec-20 17:32N 51°57' E 001°19'0 0.0
2014-Dec-20 16:32N 51°57' E 001°19'0 0.0
2014-Dec-20 15:33N 51°57' E 001°19'0 0.0
2014-Dec-20 14:34N 51°57' E 001°19'0 0.0
2014-Dec-20 13:34N 51°57' E 001°19'8 8.3
2014-Dec-20 12:34N 51°56' E 001°32'1010.3
2014-Dec-20 11:33N 51°51' E 001°47'1818.5
2014-Dec-20 10:34N 51°33' E 001°52'1414.1
2014-Dec-20 09:33N 51°23' E 002°08'1212.5
2014-Dec-20 08:34N 51°23' E 002°28'1312.0
2014-Dec-20 07:31N 51°21' E 002°48'1616.3
2014-Dec-20 06:33N 51°24' E 003°13'1414.4
2014-Dec-20 05:34N 51°26' E 003°36'1212.4
2014-Dec-20 04:34N 51°22' E 003°54'1211.5
2014-Dec-20 03:34N 51°24' E 004°13'4 4.0
2014-Dec-20 02:34N 51°21' E 004°17'2 1.9
2014-Dec-20 01:33N 51°20' E 004°20'1 0.5
2014-Dec-20 00:26N 51°20' E 004°20'0 0.0
2014-Dec-19 23:32N 51°20' E 004°20'0 0.0
2014-Dec-19 22:29N 51°20' E 004°20'0 0.0
2014-Dec-19 21:32N 51°20' E 004°20'0 0.0
2014-Dec-19 20:32N 51°20' E 004°20'0 0.0
2014-Dec-19 19:32N 51°20' E 004°20'0 0.0
2014-Dec-19 18:32N 51°20' E 004°20'0 0.0
2014-Dec-19 17:23N 51°20' E 004°20'0 0.0
2014-Dec-19 16:32N 51°20' E 004°20'0 0.0
2014-Dec-19 15:32N 51°20' E 004°20'0 0.0
2014-Dec-19 14:32N 51°20' E 004°20'0 0.0
2014-Dec-19 13:32N 51°20' E 004°20'0 0.0
2014-Dec-19 12:32N 51°20' E 004°20'0 0.0
2014-Dec-19 11:32N 51°20' E 004°20'0 0.0
2014-Dec-19 10:29N 51°20' E 004°20'0 0.0
2014-Dec-19 09:32N 51°20' E 004°20'0 0.0
2014-Dec-19 08:32N 51°20' E 004°20'0 0.0
2014-Dec-19 07:32N 51°20' E 004°20'0 0.0
2014-Dec-19 06:32N 51°20' E 004°20'0 0.0
2014-Dec-19 05:32N 51°20' E 004°20'0 0.0
2014-Dec-19 04:32N 51°20' E 004°20'0 0.0
2014-Dec-19 03:32N 51°20' E 004°20'0 0.0
2014-Dec-19 02:32N 51°20' E 004°20'0 0.0
2014-Dec-19 01:32N 51°20' E 004°20'0 0.0
2014-Dec-19 00:32N 51°20' E 004°20'0 0.0
2014-Dec-18 23:32N 51°20' E 004°20'0 0.0
2014-Dec-18 22:32N 51°20' E 004°20'0 0.0
2014-Dec-18 21:32N 51°20' E 004°20'0 0.0
2014-Dec-18 20:32N 51°20' E 004°20'0 0.0
2014-Dec-18 19:32N 51°20' E 004°20'0 0.0
2014-Dec-18 18:32N 51°20' E 004°20'0 0.0
2014-Dec-18 17:29N 51°20' E 004°20'0 0.0
2014-Dec-18 16:29N 51°20' E 004°20'0 0.0
2014-Dec-18 15:32N 51°20' E 004°20'0 0.0
2014-Dec-18 14:32N 51°20' E 004°20'0 0.0
2014-Dec-18 13:29N 51°20' E 004°20'0 0.0
2014-Dec-18 12:32N 51°20' E 004°20'0 0.0
2014-Dec-18 11:29N 51°20' E 004°20'0 0.0
2014-Dec-18 10:32N 51°20' E 004°20'0 0.0
2014-Dec-18 09:32N 51°20' E 004°20'0 0.0
2014-Dec-18 08:33N 51°20' E 004°20'2 2.0
2014-Dec-18 07:34N 51°21' E 004°18'1 0.6
2014-Dec-18 06:34N 51°21' E 004°17'4 3.8
2014-Dec-18 05:33N 51°23' E 004°13'7 7.2
2014-Dec-18 04:34N 51°25' E 004°02'9 9.1
2014-Dec-18 03:33N 51°21' E 003°49'1010.0
2014-Dec-18 02:34N 51°26' E 003°35'1010.2
2014-Dec-18 01:34N 51°24' E 003°19'1111.0
2014-Dec-18 00:34N 51°25' E 003°02'1715.3
2014-Dec-17 23:27N 51°40' E 003°13'9 8.6
2014-Dec-17 22:25N 51°47' E 003°21'1 1.1
2014-Dec-17 21:34N 51°48' E 003°23'0 0.0
2014-Dec-17 20:30N 51°47' E 003°23'0 0.1
2014-Dec-17 19:33N 51°47' E 003°23'0 0.1
2014-Dec-17 18:18N 51°47' E 003°22'0 0.1
2014-Dec-17 17:33N 51°47' E 003°22'0 0.1
2014-Dec-17 16:21N 51°47' E 003°22'0 0.1
2014-Dec-17 15:27N 51°47' E 003°23'0 0.0
2014-Dec-17 14:22N 51°47' E 003°23'0 0.1
2014-Dec-17 13:32N 51°47' E 003°23'0 0.0
2014-Dec-17 12:29N 51°48' E 003°23'0 0.0
2014-Dec-17 11:29N 51°48' E 003°23'0 0.0
2014-Dec-17 10:32N 51°48' E 003°23'0 0.0
2014-Dec-17 09:29N 51°48' E 003°23'0 0.0
2014-Dec-17 08:32N 51°48' E 003°23'0 0.1
2014-Dec-17 07:32N 51°48' E 003°23'0 0.1
2014-Dec-17 06:32N 51°48' E 003°23'0 0.0
2014-Dec-17 05:29N 51°48' E 003°23'0 0.0
2014-Dec-17 04:32N 51°48' E 003°23'0 0.1
2014-Dec-17 03:32N 51°48' E 003°22'0 0.1
2014-Dec-17 02:32N 51°48' E 003°23'0 0.0
2014-Dec-17 01:32N 51°48' E 003°23'0 0.0
2014-Dec-17 00:26N 51°48' E 003°23'0 0.0
2014-Dec-16 23:29N 51°48' E 003°23'0 0.0
2014-Dec-16 22:23N 51°48' E 003°23'0 0.0
2014-Dec-16 21:23N 51°47' E 003°23'0 0.0
2014-Dec-16 20:32N 51°47' E 003°23'0 0.1
2014-Dec-16 19:29N 51°47' E 003°23'0 0.1
2014-Dec-16 18:33N 51°47' E 003°23'0 0.1
2014-Dec-16 17:33N 51°47' E 003°23'1211.5
2014-Dec-16 16:33N 51°59' E 003°19'5515.9
2014-Dec-16 13:07N 52°50' E 003°50'1615.3
2014-Dec-16 12:06N 53°01' E 004°08'914.9
2014-Dec-16 11:30N 53°07' E 004°19'1314.2
2014-Dec-16 10:33N 53°19' E 004°30'1614.8
2014-Dec-16 09:28N 53°34' E 004°38'1515.3
2014-Dec-16 08:30N 53°48' E 004°45'1515.8
2014-Dec-16 07:32N 54°03' E 004°51'1716.1
2014-Dec-16 06:30N 54°17' E 005°06'22314.6
2014-Dec-15 15:12N 57°25' E 008°42'4813.0
2014-Dec-15 11:30N 57°45' E 010°03'1313.5
2014-Dec-15 10:33N 57°48' E 010°26'1312.7
2014-Dec-15 09:34N 57°46' E 010°50'1515.2
2014-Dec-15 08:33N 57°36' E 011°11'1515.4
2014-Dec-15 07:33N 57°24' E 011°29'1616.2
2014-Dec-15 06:33N 57°09' E 011°40'1717.3
2014-Dec-15 05:33N 56°52' E 011°50'1515.0
2014-Dec-15 04:33N 56°38' E 011°46'13012.9
2014-Dec-14 18:30N 54°27' E 011°43'1713.3
2014-Dec-14 17:15N 54°31' E 012°11'1414.3
2014-Dec-14 16:14N 54°42' E 012°27'1115.5
2014-Dec-14 15:31N 54°48' E 012°44'1815.6
2014-Dec-14 14:19N 54°54' E 013°14'1114.5
2014-Dec-14 13:33N 54°58' E 013°32'1414.3
2014-Dec-14 12:34N 55°03' E 013°56'1514.8
2014-Dec-14 11:34N 55°12' E 014°16'1515.3
2014-Dec-14 10:33N 55°24' E 014°33'1515.2
2014-Dec-14 09:33N 55°32' E 014°56'1615.5
2014-Dec-14 08:34N 55°40' E 015°19'34615.7
2014-Dec-13 10:32N 59°35' E 023°12'1515.3
2014-Dec-13 09:33N 59°40' E 023°40'1616.0
2014-Dec-13 08:33N 59°45' E 024°11'1615.9
2014-Dec-13 07:33N 59°49' E 024°41'3616.1
2014-Dec-13 05:19N 59°57' E 025°51'1316.7
2014-Dec-13 04:33N 59°59' E 026°16'1615.9
2014-Dec-13 03:33N 60°00' E 026°48'1515.3
2014-Dec-13 02:34N 60°04' E 027°17'8313.8
2014-Dec-12 20:32N 59°55' E 030°02'6 5.2
2014-Dec-12 19:26N 59°52' E 030°12'0 0.0
2014-Dec-12 18:32N 59°52' E 030°12'0 0.0
2014-Dec-12 17:32N 59°52' E 030°12'0 0.0
2014-Dec-12 16:33N 59°52' E 030°12'0 0.0
2014-Dec-12 15:33N 59°52' E 030°12'0 0.0
2014-Dec-12 14:32N 59°52' E 030°12'0 0.0
2014-Dec-12 13:33N 59°52' E 030°12'0 0.0
2014-Dec-12 12:30N 59°52' E 030°12'0 0.0
2014-Dec-12 11:33N 59°52' E 030°12'0 0.0
2014-Dec-12 10:33N 59°52' E 030°12'0 0.0
2014-Dec-12 09:33N 59°52' E 030°12'0 0.0
2014-Dec-12 08:33N 59°52' E 030°12'0 0.0
2014-Dec-12 07:33N 59°52' E 030°12'0 0.0
2014-Dec-12 06:32N 59°52' E 030°12'0 0.0
2014-Dec-12 05:33N 59°52' E 030°12'0 0.0
2014-Dec-12 04:33N 59°52' E 030°12'0 0.0
2014-Dec-12 03:33N 59°52' E 030°12'0 0.0
2014-Dec-12 02:31N 59°52' E 030°12'0 0.0
2014-Dec-12 01:32N 59°52' E 030°12'0 0.0
2014-Dec-12 00:31N 59°52' E 030°12'0 0.0
2014-Dec-11 23:32N 59°52' E 030°12'0 0.0
2014-Dec-11 22:33N 59°52' E 030°12'0 0.0
2014-Dec-11 21:32N 59°52' E 030°12'  
Track history (hours):
 
Tides and Currents Weather Stations Pressure Air Temp Water Temp Dewpoint Dewpoint Depression Visibility Wind Speed Wind Dir Waves Ship Positions

MSC Suez

Last reported at 2014-Dec-21 20:33 UTC. Time now 2014-Dec-21 22:14 UTC.
Position N 49°36' W 000°13'.

Length 237 m; draft 11.3 m.

Type: Cargo ship. MMSI: 355289000.

Date/timePositionNaut miles runAvg speedWind from/ knotsBaromVisibWave heightAir tempDewpointWater temp
2014-Dec-21 20:33N 49°36' W 000°13'1010.2
2014-Dec-21 19:31N 49°47' W 000°13'4313.8
2014-Dec-21 16:22N 50°29' E 000°04'1315.5
2014-Dec-21 15:33N 50°34' E 000°22'1515.2
2014-Dec-21 14:33N 50°42' E 000°43'1514.6
2014-Dec-21 13:33N 50°50' E 001°01'1413.5
2014-Dec-21 12:34N 50°59' E 001°18'1212.0
2014-Dec-21 11:33N 51°07' E 001°32'1212.1
2014-Dec-21 10:33N 51°18' E 001°41'1514.8
2014-Dec-21 09:34N 51°32' E 001°45'1716.6
2014-Dec-21 08:33N 51°49' E 001°44'1111.4
2014-Dec-21 07:33N 51°56' E 001°30'7 6.7
2014-Dec-21 06:34N 51°57' E 001°19'0 0.0
2014-Dec-21 05:31N 51°57' E 001°19'0 0.0
2014-Dec-21 04:31N 51°57' E 001°19'0 0.0
2014-Dec-21 03:31N 51°57' E 001°19'0 0.0
2014-Dec-21 02:31N 51°57' E 001°19'0 0.0
2014-Dec-21 01:32N 51°57' E 001°19'0 0.0
2014-Dec-21 00:32N 51°57' E 001°19'0 0.0
2014-Dec-20 23:32N 51°57' E 001°19'0 0.0
2014-Dec-20 22:32N 51°57' E 001°19'0 0.0
2014-Dec-20 21:32N 51°57' E 001°19'0 0.0
2014-Dec-20 20:32N 51°57' E 001°19'0 0.0
2014-Dec-20 19:32N 51°57' E 001°19'0 0.0
2014-Dec-20 18:32N 51°57' E 001°19'0 0.0
2014-Dec-20 17:32N 51°57' E 001°19'0 0.0
2014-Dec-20 16:32N 51°57' E 001°19'0 0.0
2014-Dec-20 15:33N 51°57' E 001°19'0 0.0
2014-Dec-20 14:34N 51°57' E 001°19'0 0.0
2014-Dec-20 13:34N 51°57' E 001°19'8 8.3
2014-Dec-20 12:34N 51°56' E 001°32'1010.3
2014-Dec-20 11:33N 51°51' E 001°47'1818.5
2014-Dec-20 10:34N 51°33' E 001°52'1414.1
2014-Dec-20 09:33N 51°23' E 002°08'1212.5
2014-Dec-20 08:34N 51°23' E 002°28'1312.0
2014-Dec-20 07:31N 51°21' E 002°48'1616.3
2014-Dec-20 06:33N 51°24' E 003°13'1414.4
2014-Dec-20 05:34N 51°26' E 003°36'1212.4
2014-Dec-20 04:34N 51°22' E 003°54'1211.5
2014-Dec-20 03:34N 51°24' E 004°13'4 4.0
2014-Dec-20 02:34N 51°21' E 004°17'2 1.9
2014-Dec-20 01:33N 51°20' E 004°20'1 0.5
2014-Dec-20 00:26N 51°20' E 004°20'0 0.0
2014-Dec-19 23:32N 51°20' E 004°20'0 0.0
2014-Dec-19 22:29N 51°20' E 004°20'0 0.0
2014-Dec-19 21:32N 51°20' E 004°20'0 0.0
2014-Dec-19 20:32N 51°20' E 004°20'0 0.0
2014-Dec-19 19:32N 51°20' E 004°20'0 0.0
2014-Dec-19 18:32N 51°20' E 004°20'0 0.0
2014-Dec-19 17:23N 51°20' E 004°20'0 0.0
2014-Dec-19 16:32N 51°20' E 004°20'0 0.0
2014-Dec-19 15:32N 51°20' E 004°20'0 0.0
2014-Dec-19 14:32N 51°20' E 004°20'0 0.0
2014-Dec-19 13:32N 51°20' E 004°20'0 0.0
2014-Dec-19 12:32N 51°20' E 004°20'0 0.0
2014-Dec-19 11:32N 51°20' E 004°20'0 0.0
2014-Dec-19 10:29N 51°20' E 004°20'0 0.0
2014-Dec-19 09:32N 51°20' E 004°20'0 0.0
2014-Dec-19 08:32N 51°20' E 004°20'0 0.0
2014-Dec-19 07:32N 51°20' E 004°20'0 0.0
2014-Dec-19 06:32N 51°20' E 004°20'0 0.0
2014-Dec-19 05:32N 51°20' E 004°20'0 0.0
2014-Dec-19 04:32N 51°20' E 004°20'0 0.0
2014-Dec-19 03:32N 51°20' E 004°20'0 0.0
2014-Dec-19 02:32N 51°20' E 004°20'0 0.0
2014-Dec-19 01:32N 51°20' E 004°20'0 0.0
2014-Dec-19 00:32N 51°20' E 004°20'0 0.0
2014-Dec-18 23:32N 51°20' E 004°20'0 0.0
2014-Dec-18 22:32N 51°20' E 004°20'0 0.0
2014-Dec-18 21:32N 51°20' E 004°20'0 0.0
2014-Dec-18 20:32N 51°20' E 004°20'0 0.0
2014-Dec-18 19:32N 51°20' E 004°20'0 0.0
2014-Dec-18 18:32N 51°20' E 004°20'0 0.0
2014-Dec-18 17:29N 51°20' E 004°20'0 0.0
2014-Dec-18 16:29N 51°20' E 004°20'0 0.0
2014-Dec-18 15:32N 51°20' E 004°20'0 0.0
2014-Dec-18 14:32N 51°20' E 004°20'0 0.0
2014-Dec-18 13:29N 51°20' E 004°20'0 0.0
2014-Dec-18 12:32N 51°20' E 004°20'0 0.0
2014-Dec-18 11:29N 51°20' E 004°20'0 0.0
2014-Dec-18 10:32N 51°20' E 004°20'0 0.0
2014-Dec-18 09:32N 51°20' E 004°20'0 0.0
2014-Dec-18 08:33N 51°20' E 004°20'2 2.0
2014-Dec-18 07:34N 51°21' E 004°18'1 0.6
2014-Dec-18 06:34N 51°21' E 004°17'4 3.8
2014-Dec-18 05:33N 51°23' E 004°13'7 7.2
2014-Dec-18 04:34N 51°25' E 004°02'9 9.1
2014-Dec-18 03:33N 51°21' E 003°49'1010.0
2014-Dec-18 02:34N 51°26' E 003°35'1010.2
2014-Dec-18 01:34N 51°24' E 003°19'1111.0
2014-Dec-18 00:34N 51°25' E 003°02'1715.3
2014-Dec-17 23:27N 51°40' E 003°13'9 8.6
2014-Dec-17 22:25N 51°47' E 003°21'1 1.1
2014-Dec-17 21:34N 51°48' E 003°23'0 0.0
2014-Dec-17 20:30N 51°47' E 003°23'0 0.1
2014-Dec-17 19:33N 51°47' E 003°23'0 0.1
2014-Dec-17 18:18N 51°47' E 003°22'0 0.1
2014-Dec-17 17:33N 51°47' E 003°22'0 0.1
2014-Dec-17 16:21N 51°47' E 003°22'0 0.1
2014-Dec-17 15:27N 51°47' E 003°23'0 0.0
2014-Dec-17 14:22N 51°47' E 003°23'0 0.1
2014-Dec-17 13:32N 51°47' E 003°23'0 0.0
2014-Dec-17 12:29N 51°48' E 003°23'0 0.0
2014-Dec-17 11:29N 51°48' E 003°23'0 0.0
2014-Dec-17 10:32N 51°48' E 003°23'0 0.0
2014-Dec-17 09:29N 51°48' E 003°23'0 0.0
2014-Dec-17 08:32N 51°48' E 003°23'0 0.1
2014-Dec-17 07:32N 51°48' E 003°23'0 0.1
2014-Dec-17 06:32N 51°48' E 003°23'0 0.0
2014-Dec-17 05:29N 51°48' E 003°23'0 0.0
2014-Dec-17 04:32N 51°48' E 003°23'0 0.1
2014-Dec-17 03:32N 51°48' E 003°22'0 0.1
2014-Dec-17 02:32N 51°48' E 003°23'0 0.0
2014-Dec-17 01:32N 51°48' E 003°23'0 0.0
2014-Dec-17 00:26N 51°48' E 003°23'0 0.0
2014-Dec-16 23:29N 51°48' E 003°23'0 0.0
2014-Dec-16 22:23N 51°48' E 003°23'0 0.0
2014-Dec-16 21:23N 51°47' E 003°23'0 0.0
2014-Dec-16 20:32N 51°47' E 003°23'0 0.1
2014-Dec-16 19:29N 51°47' E 003°23'0 0.1
2014-Dec-16 18:33N 51°47' E 003°23'0 0.1
2014-Dec-16 17:33N 51°47' E 003°23'1211.5
2014-Dec-16 16:33N 51°59' E 003°19'5515.9
2014-Dec-16 13:07N 52°50' E 003°50'1615.3
2014-Dec-16 12:06N 53°01' E 004°08'914.9
2014-Dec-16 11:30N 53°07' E 004°19'1314.2
2014-Dec-16 10:33N 53°19' E 004°30'1614.8
2014-Dec-16 09:28N 53°34' E 004°38'1515.3
2014-Dec-16 08:30N 53°48' E 004°45'1515.8
2014-Dec-16 07:32N 54°03' E 004°51'1716.1
2014-Dec-16 06:30N 54°17' E 005°06'22314.6
2014-Dec-15 15:12N 57°25' E 008°42'4813.0
2014-Dec-15 11:30N 57°45' E 010°03'1313.5
2014-Dec-15 10:33N 57°48' E 010°26'1312.7
2014-Dec-15 09:34N 57°46' E 010°50'1515.2
2014-Dec-15 08:33N 57°36' E 011°11'1515.4
2014-Dec-15 07:33N 57°24' E 011°29'1616.2
2014-Dec-15 06:33N 57°09' E 011°40'1717.3
2014-Dec-15 05:33N 56°52' E 011°50'1515.0
2014-Dec-15 04:33N 56°38' E 011°46'13012.9
2014-Dec-14 18:30N 54°27' E 011°43'1713.3
2014-Dec-14 17:15N 54°31' E 012°11'1414.3
2014-Dec-14 16:14N 54°42' E 012°27'1115.5
2014-Dec-14 15:31N 54°48' E 012°44'1815.6
2014-Dec-14 14:19N 54°54' E 013°14'1114.5
2014-Dec-14 13:33N 54°58' E 013°32'1414.3
2014-Dec-14 12:34N 55°03' E 013°56'1514.8
2014-Dec-14 11:34N 55°12' E 014°16'1515.3
2014-Dec-14 10:33N 55°24' E 014°33'1515.2
2014-Dec-14 09:33N 55°32' E 014°56'1615.5
2014-Dec-14 08:34N 55°40' E 015°19'34615.7
2014-Dec-13 10:32N 59°35' E 023°12'1515.3
2014-Dec-13 09:33N 59°40' E 023°40'1616.0
2014-Dec-13 08:33N 59°45' E 024°11'1615.9
2014-Dec-13 07:33N 59°49' E 024°41'3616.1
2014-Dec-13 05:19N 59°57' E 025°51'1316.7
2014-Dec-13 04:33N 59°59' E 026°16'1615.9
2014-Dec-13 03:33N 60°00' E 026°48'1515.3
2014-Dec-13 02:34N 60°04' E 027°17'8313.8
2014-Dec-12 20:32N 59°55' E 030°02'6 5.2
2014-Dec-12 19:26N 59°52' E 030°12'0 0.0
2014-Dec-12 18:32N 59°52' E 030°12'0 0.0
2014-Dec-12 17:32N 59°52' E 030°12'0 0.0
2014-Dec-12 16:33N 59°52' E 030°12'0 0.0
2014-Dec-12 15:33N 59°52' E 030°12'0 0.0
2014-Dec-12 14:32N 59°52' E 030°12'0 0.0
2014-Dec-12 13:33N 59°52' E 030°12'0 0.0
2014-Dec-12 12:30N 59°52' E 030°12'0 0.0
2014-Dec-12 11:33N 59°52' E 030°12'0 0.0
2014-Dec-12 10:33N 59°52' E 030°12'0 0.0
2014-Dec-12 09:33N 59°52' E 030°12'0 0.0
2014-Dec-12 08:33N 59°52' E 030°12'0 0.0
2014-Dec-12 07:33N 59°52' E 030°12'0 0.0
2014-Dec-12 06:32N 59°52' E 030°12'0 0.0
2014-Dec-12 05:33N 59°52' E 030°12'0 0.0
2014-Dec-12 04:33N 59°52' E 030°12'0 0.0
2014-Dec-12 03:33N 59°52' E 030°12'0 0.0
2014-Dec-12 02:31N 59°52' E 030°12'0 0.0
2014-Dec-12 01:32N 59°52' E 030°12'0 0.0
2014-Dec-12 00:31N 59°52' E 030°12'0 0.0
2014-Dec-11 23:32N 59°52' E 030°12'0 0.0
2014-Dec-11 22:33N 59°52' E 030°12'0 0.0
2014-Dec-11 21:32N 59°52' E 030°12'  

Dump ship's entire track history